Tillman, South Carolina
Current Conditions -  °F | °C
As of 4:56 PM on Monday 24 Nov 2014 (Local Time) from KNBC Reporting Station
Overcast Overcast  
Wind Chill: 68°   Ceiling: 3300
Heat Index: 68°   Visibility: 10mi
Dew Point: 62°   Wind: 5mph
Humidity: 81%   Direction: 230°SW
Pressure: 29.91"   Gusts: NA
Location:  32.46°N, 81.11°W
Report Text: KNBC 242156Z 23004KT 10SM BKN033 OVC075 20/17 A2991 RMK AO2 SLP127 T02000167
Loading
Personal Weather Stations






























Interactive Weather Map New forecast layout! Learn more

10-Day Weather Forecast

Advertisements
Track Severe Weather on mobile